Terminal Aerodrome Forecast
Issued by NWS

Home | Current Version | Previous Version | Text Only | Print | Product List | Glossary On
Versions: 1 2 3 4 5 6 7 8 9 10 11 12 13 14 15 16 17 18 19 20 21 22 23 24 25 26 27 28 29 30 31 32
000
FTUS41 KOKX 261351 AAA
TAFHPN
TAF AMD
KHPN 261351Z 2614/2712 30007KT P6SM SCT015 BKN025
     FM261600 29010G16KT P6SM VCSH SCT025 BKN035
     FM262000 31014G20KT P6SM VCSH BKN035
     FM262200 31009KT P6SM SCT035
     FM270100 31007KT P6SM SCT035
     FM271100 33006KT P6SM SCT050
      AMD NOT SKED=

USA.gov is the U.S. government's official web portal to all federal, state and local government web resources and services.